sensor_id;sensor_type;location;lat;lon;timestamp;P1;durP1;ratioP1;P2;durP2;ratioP2
47784;SDS011;35233;55.686;37.848;2023-03-23T00:02:29;1.90;;;1.70;;
47784;SDS011;35233;55.686;37.848;2023-03-23T00:05:00;2.13;;;1.63;;
47784;SDS011;35233;55.686;37.848;2023-03-23T00:07:28;1.95;;;1.70;;
47784;SDS011;35233;55.686;37.848;2023-03-23T00:09:54;2.60;;;1.90;;
47784;SDS011;35233;55.686;37.848;2023-03-23T00:12:24;2.67;;;1.92;;
47784;SDS011;35233;55.686;37.848;2023-03-23T00:15:04;2.10;;;1.70;;
47784;SDS011;35233;55.686;37.848;2023-03-23T00:17:31;2.20;;;1.53;;
47784;SDS011;35233;55.686;37.848;2023-03-23T00:20:00;3.67;;;2.00;;
47784;SDS011;35233;55.686;37.848;2023-03-23T00:22:28;1.88;;;1.70;;
47784;SDS011;35233;55.686;37.848;2023-03-23T00:24:54;2.08;;;1.75;;
47784;SDS011;35233;55.686;37.848;2023-03-23T00:27:20;2.20;;;2.00;;
47784;SDS011;35233;55.686;37.848;2023-03-23T00:29:48;3.55;;;2.10;;
47784;SDS011;35233;55.686;37.848;2023-03-23T00:32:17;2.35;;;1.85;;
47784;SDS011;35233;55.686;37.848;2023-03-23T00:34:45;2.55;;;1.80;;
47784;SDS011;35233;55.686;37.848;2023-03-23T00:37:13;2.70;;;2.10;;
47784;SDS011;35233;55.686;37.848;2023-03-23T00:39:41;2.10;;;1.90;;
47784;SDS011;35233;55.686;37.848;2023-03-23T00:42:09;2.95;;;2.10;;
47784;SDS011;35233;55.686;37.848;2023-03-23T00:44:35;2.42;;;1.90;;
47784;SDS011;35233;55.686;37.848;2023-03-23T00:47:01;1.83;;;1.73;;
47784;SDS011;35233;55.686;37.848;2023-03-23T00:49:27;2.50;;;1.90;;
47784;SDS011;35233;55.686;37.848;2023-03-23T00:51:54;2.75;;;2.08;;
47784;SDS011;35233;55.686;37.848;2023-03-23T00:54:22;2.55;;;1.92;;
47784;SDS011;35233;55.686;37.848;2023-03-23T00:56:49;2.08;;;1.60;;
47784;SDS011;35233;55.686;37.848;2023-03-23T00:59:16;2.42;;;1.83;;
47784;SDS011;35233;55.686;37.848;2023-03-23T01:01:42;2.28;;;1.73;;
47784;SDS011;35233;55.686;37.848;2023-03-23T01:04:07;3.45;;;2.40;;
47784;SDS011;35233;55.686;37.848;2023-03-23T01:06:34;2.10;;;1.90;;
47784;SDS011;35233;55.686;37.848;2023-03-23T01:09:05;2.58;;;1.88;;
47784;SDS011;35233;55.686;37.848;2023-03-23T01:11:32;3.42;;;2.10;;
47784;SDS011;35233;55.686;37.848;2023-03-23T01:13:58;2.78;;;2.00;;
47784;SDS011;35233;55.686;37.848;2023-03-23T01:16:25;2.25;;;1.83;;
47784;SDS011;35233;55.686;37.848;2023-03-23T01:18:51;2.38;;;1.90;;
47784;SDS011;35233;55.686;37.848;2023-03-23T01:21:17;2.95;;;2.10;;
47784;SDS011;35233;55.686;37.848;2023-03-23T01:23:45;2.45;;;1.92;;
47784;SDS011;35233;55.686;37.848;2023-03-23T01:26:20;2.45;;;1.92;;
47784;SDS011;35233;55.686;37.848;2023-03-23T01:28:47;1.83;;;1.63;;
47784;SDS011;35233;55.686;37.848;2023-03-23T01:31:14;2.30;;;1.85;;
47784;SDS011;35233;55.686;37.848;2023-03-23T01:33:42;2.47;;;2.00;;
47784;SDS011;35233;55.686;37.848;2023-03-23T01:36:16;2.03;;;1.83;;
47784;SDS011;35233;55.686;37.848;2023-03-23T01:38:43;4.18;;;2.00;;
47784;SDS011;35233;55.686;37.848;2023-03-23T01:41:10;2.22;;;1.75;;
47784;SDS011;35233;55.686;37.848;2023-03-23T01:43:53;2.22;;;1.73;;
47784;SDS011;35233;55.686;37.848;2023-03-23T01:46:31;2.63;;;1.50;;
47784;SDS011;35233;55.686;37.848;2023-03-23T01:49:00;2.45;;;1.98;;
47784;SDS011;35233;55.686;37.848;2023-03-23T01:51:33;1.63;;;1.50;;
47784;SDS011;35233;55.686;37.848;2023-03-23T01:56:48;2.20;;;1.80;;
47784;SDS011;35233;55.686;37.848;2023-03-23T01:59:20;2.73;;;2.10;;
47784;SDS011;35233;55.686;37.848;2023-03-23T02:01:48;2.42;;;1.95;;
47784;SDS011;35233;55.686;37.848;2023-03-23T02:04:17;2.42;;;1.83;;
47784;SDS011;35233;55.686;37.848;2023-03-23T02:06:43;2.65;;;1.77;;
47784;SDS011;35233;55.686;37.848;2023-03-23T02:09:10;2.58;;;1.95;;
47784;SDS011;35233;55.686;37.848;2023-03-23T02:11:38;2.55;;;1.63;;
47784;SDS011;35233;55.686;37.848;2023-03-23T02:14:05;2.72;;;1.88;;
47784;SDS011;35233;55.686;37.848;2023-03-23T02:16:37;2.17;;;1.50;;
47784;SDS011;35233;55.686;37.848;2023-03-23T02:24:27;3.97;;;2.13;;
47784;SDS011;35233;55.686;37.848;2023-03-23T02:27:17;2.05;;;1.85;;
47784;SDS011;35233;55.686;37.848;2023-03-23T02:35:44;3.03;;;1.90;;
47784;SDS011;35233;55.686;37.848;2023-03-23T02:38:14;2.17;;;1.80;;
47784;SDS011;35233;55.686;37.848;2023-03-23T02:40:45;2.92;;;1.92;;
47784;SDS011;35233;55.686;37.848;2023-03-23T02:43:20;1.92;;;1.63;;
47784;SDS011;35233;55.686;37.848;2023-03-23T02:45:49;2.67;;;1.90;;
47784;SDS011;35233;55.686;37.848;2023-03-23T02:48:17;1.98;;;1.70;;
47784;SDS011;35233;55.686;37.848;2023-03-23T02:50:47;2.85;;;2.00;;
47784;SDS011;35233;55.686;37.848;2023-03-23T02:53:18;3.38;;;2.10;;
47784;SDS011;35233;55.686;37.848;2023-03-23T02:55:47;2.17;;;1.98;;
47784;SDS011;35233;55.686;37.848;2023-03-23T02:58:13;2.30;;;1.85;;
47784;SDS011;35233;55.686;37.848;2023-03-23T03:00:39;2.40;;;2.13;;
47784;SDS011;35233;55.686;37.848;2023-03-23T03:03:09;2.05;;;1.85;;
47784;SDS011;35233;55.686;37.848;2023-03-23T03:11:03;2.50;;;1.92;;
47784;SDS011;35233;55.686;37.848;2023-03-23T03:16:38;2.40;;;1.77;;
47784;SDS011;35233;55.686;37.848;2023-03-23T03:21:44;3.42;;;2.20;;
47784;SDS011;35233;55.686;37.848;2023-03-23T03:24:13;2.75;;;2.22;;
47784;SDS011;35233;55.686;37.848;2023-03-23T03:26:44;2.72;;;2.00;;
47784;SDS011;35233;55.686;37.848;2023-03-23T03:29:13;2.33;;;2.00;;
47784;SDS011;35233;55.686;37.848;2023-03-23T03:31:42;2.72;;;1.85;;
47784;SDS011;35233;55.686;37.848;2023-03-23T03:34:13;3.65;;;2.10;;
47784;SDS011;35233;55.686;37.848;2023-03-23T03:36:43;3.53;;;2.10;;
47784;SDS011;35233;55.686;37.848;2023-03-23T03:39:11;3.78;;;1.98;;
47784;SDS011;35233;55.686;37.848;2023-03-23T03:41:40;4.93;;;2.20;;
47784;SDS011;35233;55.686;37.848;2023-03-23T03:44:06;3.92;;;2.58;;
47784;SDS011;35233;55.686;37.848;2023-03-23T03:46:33;3.67;;;2.50;;
47784;SDS011;35233;55.686;37.848;2023-03-23T03:49:00;4.20;;;2.30;;
47784;SDS011;35233;55.686;37.848;2023-03-23T03:51:27;3.05;;;2.30;;
47784;SDS011;35233;55.686;37.848;2023-03-23T03:53:54;3.45;;;2.38;;
47784;SDS011;35233;55.686;37.848;2023-03-23T03:56:20;3.95;;;2.40;;
47784;SDS011;35233;55.686;37.848;2023-03-23T03:58:47;4.93;;;2.60;;
47784;SDS011;35233;55.686;37.848;2023-03-23T04:01:13;6.28;;;2.55;;
47784;SDS011;35233;55.686;37.848;2023-03-23T04:03:41;4.97;;;2.47;;
47784;SDS011;35233;55.686;37.848;2023-03-23T04:06:07;2.78;;;2.15;;
47784;SDS011;35233;55.686;37.848;2023-03-23T04:08:37;3.50;;;2.50;;
47784;SDS011;35233;55.686;37.848;2023-03-23T04:11:03;3.97;;;2.55;;
47784;SDS011;35233;55.686;37.848;2023-03-23T04:13:29;3.85;;;2.55;;
47784;SDS011;35233;55.686;37.848;2023-03-23T04:15:55;4.43;;;2.85;;
47784;SDS011;35233;55.686;37.848;2023-03-23T04:18:21;4.28;;;2.67;;
47784;SDS011;35233;55.686;37.848;2023-03-23T04:20:48;5.25;;;2.75;;
47784;SDS011;35233;55.686;37.848;2023-03-23T04:23:15;4.35;;;2.95;;
47784;SDS011;35233;55.686;37.848;2023-03-23T04:25:50;4.60;;;2.92;;
47784;SDS011;35233;55.686;37.848;2023-03-23T04:28:18;4.80;;;2.92;;
47784;SDS011;35233;55.686;37.848;2023-03-23T04:30:44;5.00;;;2.90;;
47784;SDS011;35233;55.686;37.848;2023-03-23T04:33:14;5.47;;;3.03;;
47784;SDS011;35233;55.686;37.848;2023-03-23T04:35:41;7.45;;;3.08;;
47784;SDS011;35233;55.686;37.848;2023-03-23T04:38:11;6.00;;;2.95;;
47784;SDS011;35233;55.686;37.848;2023-03-23T04:40:40;5.38;;;3.00;;
47784;SDS011;35233;55.686;37.848;2023-03-23T04:43:07;5.60;;;2.90;;
47784;SDS011;35233;55.686;37.848;2023-03-23T04:45:34;4.60;;;3.10;;
47784;SDS011;35233;55.686;37.848;2023-03-23T04:48:03;4.78;;;3.10;;
47784;SDS011;35233;55.686;37.848;2023-03-23T04:50:30;9.05;;;3.30;;
47784;SDS011;35233;55.686;37.848;2023-03-23T04:53:01;8.13;;;3.40;;
47784;SDS011;35233;55.686;37.848;2023-03-23T04:55:33;12.93;;;3.97;;
47784;SDS011;35233;55.686;37.848;2023-03-23T04:58:01;11.63;;;3.40;;
47784;SDS011;35233;55.686;37.848;2023-03-23T05:00:31;11.48;;;3.30;;
47784;SDS011;35233;55.686;37.848;2023-03-23T05:02:58;6.97;;;3.65;;
47784;SDS011;35233;55.686;37.848;2023-03-23T05:05:24;7.60;;;3.20;;
47784;SDS011;35233;55.686;37.848;2023-03-23T05:07:50;14.68;;;4.10;;
47784;SDS011;35233;55.686;37.848;2023-03-23T05:10:16;9.05;;;4.25;;
47784;SDS011;35233;55.686;37.848;2023-03-23T05:12:42;6.80;;;4.60;;
47784;SDS011;35233;55.686;37.848;2023-03-23T05:15:08;12.90;;;4.88;;
47784;SDS011;35233;55.686;37.848;2023-03-23T05:17:35;10.65;;;5.82;;
47784;SDS011;35233;55.686;37.848;2023-03-23T05:20:02;10.55;;;7.10;;
47784;SDS011;35233;55.686;37.848;2023-03-23T05:22:30;12.55;;;6.88;;
47784;SDS011;35233;55.686;37.848;2023-03-23T05:24:59;11.40;;;6.65;;
47784;SDS011;35233;55.686;37.848;2023-03-23T05:27:27;10.75;;;7.20;;
47784;SDS011;35233;55.686;37.848;2023-03-23T05:29:55;9.27;;;6.57;;
47784;SDS011;35233;55.686;37.848;2023-03-23T05:32:24;10.25;;;6.55;;
47784;SDS011;35233;55.686;37.848;2023-03-23T05:34:56;9.02;;;6.38;;
47784;SDS011;35233;55.686;37.848;2023-03-23T05:37:24;10.10;;;7.10;;
47784;SDS011;35233;55.686;37.848;2023-03-23T05:39:51;11.15;;;6.57;;
47784;SDS011;35233;55.686;37.848;2023-03-23T05:42:19;10.50;;;6.97;;
47784;SDS011;35233;55.686;37.848;2023-03-23T05:44:45;10.75;;;6.90;;
47784;SDS011;35233;55.686;37.848;2023-03-23T05:47:11;10.73;;;7.20;;
47784;SDS011;35233;55.686;37.848;2023-03-23T05:49:37;10.32;;;6.38;;
47784;SDS011;35233;55.686;37.848;2023-03-23T05:52:03;9.30;;;6.63;;
47784;SDS011;35233;55.686;37.848;2023-03-23T05:54:29;11.10;;;7.60;;
47784;SDS011;35233;55.686;37.848;2023-03-23T05:56:54;10.80;;;7.35;;
47784;SDS011;35233;55.686;37.848;2023-03-23T05:59:20;10.95;;;7.30;;
47784;SDS011;35233;55.686;37.848;2023-03-23T06:01:46;9.68;;;7.82;;
47784;SDS011;35233;55.686;37.848;2023-03-23T06:04:11;11.95;;;7.57;;
47784;SDS011;35233;55.686;37.848;2023-03-23T06:06:38;11.57;;;8.52;;
47784;SDS011;35233;55.686;37.848;2023-03-23T06:09:06;11.32;;;8.55;;
47784;SDS011;35233;55.686;37.848;2023-03-23T06:11:32;12.65;;;9.57;;
47784;SDS011;35233;55.686;37.848;2023-03-23T06:13:58;11.73;;;9.23;;
47784;SDS011;35233;55.686;37.848;2023-03-23T06:16:23;13.30;;;9.60;;
47784;SDS011;35233;55.686;37.848;2023-03-23T06:18:49;11.63;;;8.63;;
47784;SDS011;35233;55.686;37.848;2023-03-23T06:21:14;12.63;;;9.63;;
47784;SDS011;35233;55.686;37.848;2023-03-23T06:23:43;12.02;;;9.02;;
47784;SDS011;35233;55.686;37.848;2023-03-23T06:26:09;13.05;;;9.13;;
47784;SDS011;35233;55.686;37.848;2023-03-23T06:28:39;10.82;;;8.02;;
47784;SDS011;35233;55.686;37.848;2023-03-23T06:31:05;10.25;;;7.97;;
47784;SDS011;35233;55.686;37.848;2023-03-23T06:33:35;11.90;;;8.27;;
47784;SDS011;35233;55.686;37.848;2023-03-23T06:36:02;9.98;;;7.90;;
47784;SDS011;35233;55.686;37.848;2023-03-23T06:38:29;10.60;;;7.80;;
47784;SDS011;35233;55.686;37.848;2023-03-23T06:40:55;10.48;;;7.72;;
47784;SDS011;35233;55.686;37.848;2023-03-23T06:43:21;10.93;;;8.35;;
47784;SDS011;35233;55.686;37.848;2023-03-23T06:45:48;16.95;;;10.00;;
47784;SDS011;35233;55.686;37.848;2023-03-23T06:48:13;13.45;;;10.15;;
47784;SDS011;35233;55.686;37.848;2023-03-23T06:50:42;15.75;;;11.38;;
47784;SDS011;35233;55.686;37.848;2023-03-23T06:53:08;17.52;;;12.88;;
47784;SDS011;35233;55.686;37.848;2023-03-23T06:55:47;16.08;;;12.50;;
47784;SDS011;35233;55.686;37.848;2023-03-23T06:58:34;18.08;;;14.75;;
47784;SDS011;35233;55.686;37.848;2023-03-23T07:01:00;19.10;;;14.65;;
47784;SDS011;35233;55.686;37.848;2023-03-23T07:03:26;20.88;;;15.50;;
47784;SDS011;35233;55.686;37.848;2023-03-23T07:05:53;18.88;;;15.32;;
47784;SDS011;35233;55.686;37.848;2023-03-23T07:08:19;20.77;;;16.40;;
47784;SDS011;35233;55.686;37.848;2023-03-23T07:10:45;21.45;;;16.08;;
47784;SDS011;35233;55.686;37.848;2023-03-23T07:13:11;22.83;;;16.88;;
47784;SDS011;35233;55.686;37.848;2023-03-23T07:15:38;21.70;;;16.55;;
47784;SDS011;35233;55.686;37.848;2023-03-23T07:18:04;21.58;;;17.95;;
47784;SDS011;35233;55.686;37.848;2023-03-23T07:20:30;21.25;;;17.67;;
47784;SDS011;35233;55.686;37.848;2023-03-23T07:22:56;24.10;;;17.70;;
47784;SDS011;35233;55.686;37.848;2023-03-23T07:25:21;22.98;;;17.73;;
47784;SDS011;35233;55.686;37.848;2023-03-23T07:27:47;23.75;;;17.30;;
47784;SDS011;35233;55.686;37.848;2023-03-23T07:30:13;21.23;;;16.60;;
47784;SDS011;35233;55.686;37.848;2023-03-23T07:32:40;20.23;;;16.50;;
47784;SDS011;35233;55.686;37.848;2023-03-23T07:35:07;23.10;;;16.27;;
47784;SDS011;35233;55.686;37.848;2023-03-23T07:37:34;21.05;;;16.40;;
47784;SDS011;35233;55.686;37.848;2023-03-23T07:40:01;20.80;;;16.65;;
47784;SDS011;35233;55.686;37.848;2023-03-23T07:42:39;21.10;;;17.33;;
47784;SDS011;35233;55.686;37.848;2023-03-23T07:45:10;23.15;;;16.98;;
47784;SDS011;35233;55.686;37.848;2023-03-23T07:47:37;19.80;;;16.58;;
47784;SDS011;35233;55.686;37.848;2023-03-23T07:50:03;22.13;;;16.90;;
47784;SDS011;35233;55.686;37.848;2023-03-23T07:52:30;22.27;;;16.52;;
47784;SDS011;35233;55.686;37.848;2023-03-23T07:54:56;21.63;;;18.23;;
47784;SDS011;35233;55.686;37.848;2023-03-23T07:57:21;23.27;;;18.40;;
47784;SDS011;35233;55.686;37.848;2023-03-23T07:59:47;25.45;;;19.85;;
47784;SDS011;35233;55.686;37.848;2023-03-23T08:02:13;22.52;;;18.40;;
47784;SDS011;35233;55.686;37.848;2023-03-23T08:04:39;22.40;;;17.20;;
47784;SDS011;35233;55.686;37.848;2023-03-23T08:07:05;23.05;;;18.05;;
47784;SDS011;35233;55.686;37.848;2023-03-23T08:09:30;23.58;;;18.05;;
47784;SDS011;35233;55.686;37.848;2023-03-23T08:11:56;24.52;;;18.98;;
47784;SDS011;35233;55.686;37.848;2023-03-23T08:14:22;22.05;;;17.05;;
47784;SDS011;35233;55.686;37.848;2023-03-23T08:16:51;21.02;;;17.13;;
47784;SDS011;35233;55.686;37.848;2023-03-23T08:19:17;21.85;;;17.40;;
47784;SDS011;35233;55.686;37.848;2023-03-23T08:21:42;22.33;;;17.98;;
47784;SDS011;35233;55.686;37.848;2023-03-23T08:24:08;19.02;;;15.88;;
47784;SDS011;35233;55.686;37.848;2023-03-23T08:26:33;22.80;;;16.63;;
47784;SDS011;35233;55.686;37.848;2023-03-23T08:28:59;20.08;;;16.60;;
47784;SDS011;35233;55.686;37.848;2023-03-23T08:31:25;22.42;;;16.52;;
47784;SDS011;35233;55.686;37.848;2023-03-23T08:33:52;20.90;;;16.92;;
47784;SDS011;35233;55.686;37.848;2023-03-23T08:36:17;20.55;;;16.33;;
47784;SDS011;35233;55.686;37.848;2023-03-23T08:38:43;20.95;;;15.70;;
47784;SDS011;35233;55.686;37.848;2023-03-23T08:41:09;21.75;;;16.27;;
47784;SDS011;35233;55.686;37.848;2023-03-23T08:43:35;22.23;;;16.73;;
47784;SDS011;35233;55.686;37.848;2023-03-23T08:46:01;20.65;;;16.13;;
47784;SDS011;35233;55.686;37.848;2023-03-23T08:48:31;19.67;;;15.27;;
47784;SDS011;35233;55.686;37.848;2023-03-23T08:50:58;19.10;;;14.75;;
47784;SDS011;35233;55.686;37.848;2023-03-23T08:53:24;19.48;;;14.73;;
47784;SDS011;35233;55.686;37.848;2023-03-23T08:55:51;18.33;;;14.60;;
47784;SDS011;35233;55.686;37.848;2023-03-23T08:58:16;18.50;;;14.77;;
47784;SDS011;35233;55.686;37.848;2023-03-23T09:00:42;16.95;;;13.95;;
47784;SDS011;35233;55.686;37.848;2023-03-23T09:03:08;17.42;;;13.35;;
47784;SDS011;35233;55.686;37.848;2023-03-23T09:05:33;17.08;;;13.65;;
47784;SDS011;35233;55.686;37.848;2023-03-23T09:08:00;18.70;;;14.07;;
47784;SDS011;35233;55.686;37.848;2023-03-23T09:10:27;16.75;;;14.13;;
47784;SDS011;35233;55.686;37.848;2023-03-23T09:12:56;18.20;;;14.60;;
47784;SDS011;35233;55.686;37.848;2023-03-23T09:15:22;21.42;;;17.13;;
47784;SDS011;35233;55.686;37.848;2023-03-23T09:17:49;19.45;;;15.98;;
47784;SDS011;35233;55.686;37.848;2023-03-23T09:20:16;19.73;;;15.93;;
47784;SDS011;35233;55.686;37.848;2023-03-23T09:22:52;19.27;;;15.70;;
47784;SDS011;35233;55.686;37.848;2023-03-23T09:25:20;19.77;;;15.27;;
47784;SDS011;35233;55.686;37.848;2023-03-23T09:27:52;19.40;;;14.40;;
47784;SDS011;35233;55.686;37.848;2023-03-23T09:30:22;18.27;;;15.32;;
47784;SDS011;35233;55.686;37.848;2023-03-23T09:32:50;17.65;;;13.82;;
47784;SDS011;35233;55.686;37.848;2023-03-23T09:35:16;17.00;;;13.50;;
47784;SDS011;35233;55.686;37.848;2023-03-23T09:37:43;16.65;;;13.73;;
47784;SDS011;35233;55.686;37.848;2023-03-23T09:40:11;15.57;;;12.68;;
47784;SDS011;35233;55.686;37.848;2023-03-23T09:42:51;14.90;;;12.18;;
47784;SDS011;35233;55.686;37.848;2023-03-23T09:48:33;14.50;;;11.02;;
47784;SDS011;35233;55.686;37.848;2023-03-23T09:54:23;14.60;;;11.68;;
47784;SDS011;35233;55.686;37.848;2023-03-23T09:56:49;13.65;;;10.77;;
47784;SDS011;35233;55.686;37.848;2023-03-23T09:59:29;14.18;;;11.63;;
47784;SDS011;35233;55.686;37.848;2023-03-23T10:01:58;13.55;;;11.02;;
47784;SDS011;35233;55.686;37.848;2023-03-23T10:04:44;14.32;;;11.05;;
47784;SDS011;35233;55.686;37.848;2023-03-23T10:07:22;15.88;;;12.10;;
47784;SDS011;35233;55.686;37.848;2023-03-23T10:09:57;12.93;;;10.80;;
47784;SDS011;35233;55.686;37.848;2023-03-23T10:12:30;14.20;;;11.68;;
47784;SDS011;35233;55.686;37.848;2023-03-23T10:17:57;14.75;;;11.55;;
47784;SDS011;35233;55.686;37.848;2023-03-23T10:20:35;15.20;;;12.48;;
47784;SDS011;35233;55.686;37.848;2023-03-23T10:23:05;15.98;;;12.98;;
47784;SDS011;35233;55.686;37.848;2023-03-23T10:25:45;15.10;;;12.45;;
47784;SDS011;35233;55.686;37.848;2023-03-23T10:28:17;17.45;;;13.20;;
47784;SDS011;35233;55.686;37.848;2023-03-23T10:30:53;15.65;;;12.70;;
47784;SDS011;35233;55.686;37.848;2023-03-23T10:33:38;14.75;;;11.90;;
47784;SDS011;35233;55.686;37.848;2023-03-23T10:39:02;16.33;;;12.65;;
47784;SDS011;35233;55.686;37.848;2023-03-23T10:41:36;12.98;;;11.48;;
47784;SDS011;35233;55.686;37.848;2023-03-23T10:44:08;13.60;;;11.45;;
47784;SDS011;35233;55.686;37.848;2023-03-23T10:54:54;14.48;;;10.90;;
47784;SDS011;35233;55.686;37.848;2023-03-23T10:57:26;14.02;;;10.98;;
47784;SDS011;35233;55.686;37.848;2023-03-23T10:59:58;12.15;;;10.40;;
47784;SDS011;35233;55.686;37.848;2023-03-23T11:05:44;12.20;;;10.43;;
47784;SDS011;35233;55.686;37.848;2023-03-23T11:10:51;15.68;;;12.40;;
47784;SDS011;35233;55.686;37.848;2023-03-23T11:13:19;16.10;;;12.88;;
47784;SDS011;35233;55.686;37.848;2023-03-23T11:15:48;14.05;;;12.10;;
47784;SDS011;35233;55.686;37.848;2023-03-23T11:18:34;14.05;;;11.93;;
47784;SDS011;35233;55.686;37.848;2023-03-23T11:21:01;14.98;;;12.18;;
47784;SDS011;35233;55.686;37.848;2023-03-23T11:23:33;13.50;;;11.43;;
47784;SDS011;35233;55.686;37.848;2023-03-23T11:28:53;14.23;;;12.00;;
47784;SDS011;35233;55.686;37.848;2023-03-23T11:31:44;14.73;;;11.82;;
47784;SDS011;35233;55.686;37.848;2023-03-23T11:34:34;12.90;;;10.63;;
47784;SDS011;35233;55.686;37.848;2023-03-23T11:37:11;14.13;;;10.43;;
47784;SDS011;35233;55.686;37.848;2023-03-23T11:39:47;12.13;;;10.27;;
47784;SDS011;35233;55.686;37.848;2023-03-23T11:42:19;13.55;;;10.98;;
47784;SDS011;35233;55.686;37.848;2023-03-23T11:44:46;13.38;;;11.52;;
47784;SDS011;35233;55.686;37.848;2023-03-23T11:47:22;13.77;;;11.63;;
47784;SDS011;35233;55.686;37.848;2023-03-23T11:57:46;12.52;;;10.40;;
47784;SDS011;35233;55.686;37.848;2023-03-23T12:00:13;12.20;;;10.23;;
47784;SDS011;35233;55.686;37.848;2023-03-23T12:11:07;15.27;;;12.35;;
47784;SDS011;35233;55.686;37.848;2023-03-23T12:13:54;17.17;;;11.77;;
47784;SDS011;35233;55.686;37.848;2023-03-23T12:27:33;13.50;;;11.43;;
47784;SDS011;35233;55.686;37.848;2023-03-23T12:30:24;13.23;;;11.57;;
47784;SDS011;35233;55.686;37.848;2023-03-23T12:33:07;14.07;;;11.40;;
47784;SDS011;35233;55.686;37.848;2023-03-23T12:35:48;13.25;;;10.93;;
47784;SDS011;35233;55.686;37.848;2023-03-23T12:46:18;13.07;;;10.65;;
47784;SDS011;35233;55.686;37.848;2023-03-23T12:51:32;10.93;;;9.13;;
47784;SDS011;35233;55.686;37.848;2023-03-23T12:59:32;10.70;;;9.52;;
47784;SDS011;35233;55.686;37.848;2023-03-23T13:02:21;11.93;;;9.57;;
47784;SDS011;35233;55.686;37.848;2023-03-23T13:04:50;11.52;;;9.50;;
47784;SDS011;35233;55.686;37.848;2023-03-23T13:07:39;12.13;;;10.10;;
47784;SDS011;35233;55.686;37.848;2023-03-23T13:13:05;12.75;;;10.43;;
47784;SDS011;35233;55.686;37.848;2023-03-23T13:16:00;12.43;;;9.88;;
47784;SDS011;35233;55.686;37.848;2023-03-23T13:21:13;13.48;;;10.43;;
47784;SDS011;35233;55.686;37.848;2023-03-23T13:23:41;12.60;;;10.07;;
47784;SDS011;35233;55.686;37.848;2023-03-23T13:26:12;12.18;;;10.23;;
47784;SDS011;35233;55.686;37.848;2023-03-23T13:31:21;12.35;;;10.25;;
47784;SDS011;35233;55.686;37.848;2023-03-23T13:33:57;11.60;;;9.73;;
47784;SDS011;35233;55.686;37.848;2023-03-23T13:36:29;11.88;;;8.95;;
47784;SDS011;35233;55.686;37.848;2023-03-23T13:38:57;13.15;;;9.68;;
47784;SDS011;35233;55.686;37.848;2023-03-23T13:41:24;11.32;;;9.05;;
47784;SDS011;35233;55.686;37.848;2023-03-23T13:43:52;12.27;;;9.32;;
47784;SDS011;35233;55.686;37.848;2023-03-23T13:48:47;10.02;;;8.07;;
47784;SDS011;35233;55.686;37.848;2023-03-23T14:01:51;11.18;;;8.90;;
47784;SDS011;35233;55.686;37.848;2023-03-23T14:04:18;11.07;;;8.38;;
47784;SDS011;35233;55.686;37.848;2023-03-23T14:06:45;10.25;;;8.40;;
47784;SDS011;35233;55.686;37.848;2023-03-23T14:11:46;12.40;;;8.82;;
47784;SDS011;35233;55.686;37.848;2023-03-23T14:14:22;10.82;;;8.57;;
47784;SDS011;35233;55.686;37.848;2023-03-23T14:16:52;9.50;;;7.93;;
47784;SDS011;35233;55.686;37.848;2023-03-23T14:19:22;10.73;;;8.35;;
47784;SDS011;35233;55.686;37.848;2023-03-23T14:21:57;10.73;;;7.80;;
47784;SDS011;35233;55.686;37.848;2023-03-23T14:24:31;10.13;;;8.07;;
47784;SDS011;35233;55.686;37.848;2023-03-23T14:27:08;10.07;;;7.82;;
47784;SDS011;35233;55.686;37.848;2023-03-23T14:29:35;10.95;;;8.70;;
47784;SDS011;35233;55.686;37.848;2023-03-23T14:32:01;10.57;;;8.30;;
47784;SDS011;35233;55.686;37.848;2023-03-23T14:34:30;9.85;;;7.93;;
47784;SDS011;35233;55.686;37.848;2023-03-23T14:36:57;10.63;;;8.48;;
47784;SDS011;35233;55.686;37.848;2023-03-23T14:39:26;12.02;;;10.18;;
47784;SDS011;35233;55.686;37.848;2023-03-23T14:42:06;11.57;;;9.07;;
47784;SDS011;35233;55.686;37.848;2023-03-23T14:44:44;10.88;;;8.93;;
47784;SDS011;35233;55.686;37.848;2023-03-23T14:47:18;11.57;;;9.32;;
47784;SDS011;35233;55.686;37.848;2023-03-23T14:49:46;10.13;;;8.30;;
47784;SDS011;35233;55.686;37.848;2023-03-23T14:52:17;10.38;;;8.63;;
47784;SDS011;35233;55.686;37.848;2023-03-23T14:54:44;10.02;;;7.72;;
47784;SDS011;35233;55.686;37.848;2023-03-23T14:57:14;9.82;;;8.25;;
47784;SDS011;35233;55.686;37.848;2023-03-23T14:59:43;9.25;;;7.80;;
47784;SDS011;35233;55.686;37.848;2023-03-23T15:02:18;9.80;;;7.95;;
47784;SDS011;35233;55.686;37.848;2023-03-23T15:05:06;9.68;;;7.93;;
47784;SDS011;35233;55.686;37.848;2023-03-23T15:07:50;9.52;;;7.57;;
47784;SDS011;35233;55.686;37.848;2023-03-23T15:10:20;9.80;;;8.02;;
47784;SDS011;35233;55.686;37.848;2023-03-23T15:12:48;9.30;;;7.10;;
47784;SDS011;35233;55.686;37.848;2023-03-23T15:15:22;9.52;;;7.28;;
47784;SDS011;35233;55.686;37.848;2023-03-23T15:17:51;8.65;;;7.03;;
47784;SDS011;35233;55.686;37.848;2023-03-23T15:22:54;9.55;;;7.85;;
47784;SDS011;35233;55.686;37.848;2023-03-23T15:30:46;9.20;;;6.60;;
47784;SDS011;35233;55.686;37.848;2023-03-23T15:33:14;14.30;;;7.60;;
47784;SDS011;35233;55.686;37.848;2023-03-23T15:35:50;10.65;;;8.13;;
47784;SDS011;35233;55.686;37.848;2023-03-23T15:38:22;11.40;;;8.50;;
47784;SDS011;35233;55.686;37.848;2023-03-23T15:40:58;10.85;;;8.27;;
47784;SDS011;35233;55.686;37.848;2023-03-23T15:43:28;12.63;;;8.93;;
47784;SDS011;35233;55.686;37.848;2023-03-23T15:48:34;12.40;;;9.57;;
47784;SDS011;35233;55.686;37.848;2023-03-23T15:51:14;13.40;;;9.82;;
47784;SDS011;35233;55.686;37.848;2023-03-23T15:53:41;13.85;;;9.77;;
47784;SDS011;35233;55.686;37.848;2023-03-23T15:56:08;13.25;;;10.40;;
47784;SDS011;35233;55.686;37.848;2023-03-23T15:58:36;12.63;;;10.02;;
47784;SDS011;35233;55.686;37.848;2023-03-23T16:01:04;12.77;;;10.32;;
47784;SDS011;35233;55.686;37.848;2023-03-23T16:06:34;15.43;;;11.30;;
47784;SDS011;35233;55.686;37.848;2023-03-23T16:09:01;15.40;;;11.75;;
47784;SDS011;35233;55.686;37.848;2023-03-23T16:11:28;17.25;;;13.57;;
47784;SDS011;35233;55.686;37.848;2023-03-23T16:13:55;15.75;;;11.18;;
47784;SDS011;35233;55.686;37.848;2023-03-23T16:16:36;14.05;;;11.15;;
47784;SDS011;35233;55.686;37.848;2023-03-23T16:19:12;14.95;;;12.05;;
47784;SDS011;35233;55.686;37.848;2023-03-23T16:21:39;16.63;;;12.15;;
47784;SDS011;35233;55.686;37.848;2023-03-23T16:24:06;16.63;;;11.75;;
47784;SDS011;35233;55.686;37.848;2023-03-23T16:26:33;15.07;;;12.07;;
47784;SDS011;35233;55.686;37.848;2023-03-23T16:28:59;15.02;;;11.10;;
47784;SDS011;35233;55.686;37.848;2023-03-23T16:31:26;16.55;;;12.50;;
47784;SDS011;35233;55.686;37.848;2023-03-23T16:33:52;15.18;;;12.00;;
47784;SDS011;35233;55.686;37.848;2023-03-23T16:36:18;14.52;;;11.70;;
47784;SDS011;35233;55.686;37.848;2023-03-23T16:38:43;14.52;;;11.18;;
47784;SDS011;35233;55.686;37.848;2023-03-23T16:41:09;15.18;;;10.65;;
47784;SDS011;35233;55.686;37.848;2023-03-23T16:43:34;16.00;;;11.25;;
47784;SDS011;35233;55.686;37.848;2023-03-23T16:46:00;14.73;;;10.60;;
47784;SDS011;35233;55.686;37.848;2023-03-23T16:48:26;14.60;;;11.38;;
47784;SDS011;35233;55.686;37.848;2023-03-23T16:50:51;14.45;;;11.10;;